Thayer, Iowa
Current Conditions -  °F | °C
As of 6:35 PM on Monday 24 Nov 2014 (Local Time) from KCSQ Reporting Station
Clear Clear  
Wind Chill: 15°   Ceiling: Unl
Heat Index: 27°   Visibility: 10mi
Dew Point: 19°   Wind: 14mph
Humidity: 74%   Direction: 300°WNW
Pressure: 29.89"   Gusts: NA
Location:  41.03°N, 94.05°W
Report Text: KCSQ 250035Z AUTO 30012KT 10SM CLR M03/M07 A2989 RMK AO2
Loading
Personal Weather Stations






























Interactive Weather Map New forecast layout! Learn more

10-Day Weather Forecast

Advertisements
Track Severe Weather on mobile